Time;durP1;ratioP1;P1;durP2;ratioP2;P2;SDS_P1;SDS_P2;PMS_P1;PMS_P2;Temp;Humidity;BMP_temperature;BMP_pressure;BME280_temperature;BME280_humidity;BME280_pressure;Samples;Min_cycle;Max_cycle;Signal;HPM_P1;HPM_P2
2023/07/04 00:01:53;;;;;;;4.03;2.50;;;;;12.00;94059.00;;;;7393408;19;20207;-77
2023/07/04 00:04:29;;;;;;;4.18;2.65;;;;;11.90;94053.00;;;;7395879;19;20137;-77
2023/07/04 00:07:10;;;;;;;7.70;2.80;;;;;12.00;94050.00;;;;7395430;19;20137;-77
2023/07/04 00:09:38;;;;;;;3.55;2.28;;;;;12.10;94041.00;;;;7394042;19;20494;-77
2023/07/04 00:12:11;;;;;;;4.68;2.80;;;;;12.10;94043.00;;;;7391935;19;20153;-77
2023/07/04 00:14:45;;;;;;;2.85;2.20;;;;;12.20;94045.00;;;;7395588;19;20156;-77
2023/07/04 00:17:20;;;;;;;4.03;2.40;;;;;12.20;94044.00;;;;7389722;19;20132;-77
2023/07/04 00:19:54;;;;;;;3.22;2.42;;;;;12.10;94038.00;;;;7392311;19;20140;-77
2023/07/04 00:22:23;;;;;;;2.70;2.10;;;;;12.00;94038.00;;;;7393686;19;20145;-77
2023/07/04 00:25:04;;;;;;;2.85;2.42;;;;;12.00;94040.00;;;;7394678;19;20474;-77
2023/07/04 00:27:33;;;;;;;4.97;2.55;;;;;12.10;94040.00;;;;7392783;19;20157;-77
2023/07/04 00:30:12;;;;;;;3.50;2.53;;;;;12.10;94041.00;;;;7394616;19;20457;-76
2023/07/04 00:32:42;;;;;;;2.17;1.90;;;;;12.20;94039.00;;;;7396074;19;20191;-74
2023/07/04 00:35:16;;;;;;;3.25;2.00;;;;;12.20;94036.00;;;;7393905;19;20129;-74
2023/07/04 00:37:46;;;;;;;3.75;2.30;;;;;12.20;94037.00;;;;7399798;19;20172;-73
2023/07/04 00:40:20;;;;;;;3.13;2.80;;;;;12.10;94050.00;;;;7402906;19;20121;-74
2023/07/04 00:43:02;;;;;;;3.17;2.47;;;;;12.20;94047.00;;;;7400245;19;20124;-73
2023/07/04 00:45:43;;;;;;;4.95;2.15;;;;;12.20;94053.00;;;;7401531;19;20866;-73
2023/07/04 00:48:14;;;;;;;2.40;2.05;;;;;12.30;94049.00;;;;7400512;19;20133;-74
2023/07/04 00:50:50;;;;;;;3.72;2.55;;;;;12.50;94049.00;;;;7400720;19;20493;-73
2023/07/04 00:53:18;;;;;;;2.58;2.38;;;;;12.60;94053.00;;;;7401525;19;20148;-73
2023/07/04 00:55:52;;;;;;;2.50;2.20;;;;;12.60;94052.00;;;;7398472;19;20144;-74
2023/07/04 00:58:20;;;;;;;4.03;2.50;;;;;12.50;94048.00;;;;7399929;19;20612;-75
2023/07/04 01:00:54;;;;;;;2.70;2.28;;;;;12.60;94051.00;;;;7394512;19;20258;-92
2023/07/04 01:03:34;;;;;;;4.53;2.42;;;;;12.60;94045.00;;;;7410465;19;20152;-92
2023/07/04 01:06:20;;;;;;;2.95;2.17;;;;;12.50;94053.00;;;;7412379;19;20223;-93
2023/07/04 01:08:56;;;;;;;3.45;1.83;;;;;12.40;94049.00;;;;7411152;19;20140;-92
2023/07/04 01:11:42;;;;;;;2.95;2.08;;;;;12.40;94053.00;;;;7409222;19;20158;-92
2023/07/04 01:14:19;;;;;;;5.30;1.98;;;;;12.30;94054.00;;;;7405959;19;20200;-92
2023/07/04 01:16:47;;;;;;;3.35;2.25;;;;;12.20;94070.00;;;;7408008;19;20151;-92
2023/07/04 01:19:32;;;;;;;3.38;2.10;;;;;12.20;94064.00;;;;7410537;19;20176;-91
2023/07/04 01:22:38;;;;;;;2.30;1.95;;;;;12.30;94069.00;;;;7411321;19;20155;-92
2023/07/04 01:25:31;;;;;;;4.10;2.30;;;;;12.30;94071.00;;;;7410962;19;20152;-92
2023/07/04 01:28:07;;;;;;;4.63;2.22;;;;;12.50;94076.00;;;;7410402;19;20212;-92
2023/07/04 01:30:38;;;;;;;3.20;2.17;;;;;12.60;94064.00;;;;7408433;19;20133;-92
2023/07/04 01:33:13;;;;;;;4.30;2.08;;;;;12.70;94068.00;;;;7409861;19;20136;-93
2023/07/04 01:35:41;;;;;;;3.28;2.30;;;;;12.70;94068.00;;;;7411480;19;20593;-92
2023/07/04 01:38:16;;;;;;;3.67;2.88;;;;;12.80;94067.00;;;;7412698;19;20153;-91
2023/07/04 01:40:50;;;;;;;2.45;2.25;;;;;13.00;94063.00;;;;7409819;19;20145;-92
2023/07/04 01:43:24;;;;;;;3.08;2.13;;;;;13.00;94063.00;;;;7410904;19;20145;-92
2023/07/04 01:45:59;;;;;;;3.17;2.05;;;;;13.00;94062.00;;;;7408867;19;20179;-92
2023/07/04 01:48:33;;;;;;;3.47;2.10;;;;;13.10;94068.00;;;;7404419;19;20160;-91
2023/07/04 01:51:07;;;;;;;3.50;2.10;;;;;13.20;94061.00;;;;7407970;19;20149;-92
2023/07/04 01:53:35;;;;;;;2.42;2.00;;;;;13.10;94062.00;;;;7409426;19;20137;-92
2023/07/04 01:56:13;;;;;;;1.95;1.75;;;;;13.00;94063.00;;;;7407027;19;20159;-92
2023/07/04 01:58:40;;;;;;;3.53;2.30;;;;;13.10;94061.00;;;;7408484;19;20144;-92
2023/07/04 02:01:21;;;;;;;3.15;2.03;;;;;13.00;94055.00;;;;7407565;19;20170;-92
2023/07/04 02:03:59;;;;;;;2.55;1.92;;;;;12.80;94064.00;;;;7409218;19;20128;-92
2023/07/04 02:06:33;;;;;;;3.22;2.20;;;;;12.70;94058.00;;;;7408482;19;20145;-93
2023/07/04 02:09:01;;;;;;;3.28;2.20;;;;;12.60;94066.00;;;;7410014;19;20141;-92
2023/07/04 02:11:35;;;;;;;2.30;2.10;;;;;12.50;94054.00;;;;7409123;19;20168;-91
2023/07/04 02:14:03;;;;;;;4.80;2.17;;;;;12.30;94051.00;;;;7408901;19;20144;-92
2023/07/04 02:16:37;;;;;;;6.55;2.40;;;;;12.60;94049.00;;;;7406541;19;20499;-90
2023/07/04 02:19:06;;;;;;;4.97;1.98;;;;;12.60;94054.00;;;;7406398;19;20212;-90
2023/07/04 02:21:43;;;;;;;5.35;2.03;;;;;12.50;94053.00;;;;7406472;19;20151;-89
2023/07/04 02:24:11;;;;;;;3.58;2.10;;;;;12.40;94046.00;;;;7407478;19;20140;-90
2023/07/04 02:26:46;;;;;;;3.42;2.10;;;;;12.40;94042.00;;;;7406254;19;20164;-92
2023/07/04 02:29:21;;;;;;;3.30;2.20;;;;;12.50;94052.00;;;;7406283;19;20153;-90
2023/07/04 02:31:55;;;;;;;5.05;2.20;;;;;12.40;94042.00;;;;7405831;19;20164;-90
2023/07/04 02:34:30;;;;;;;3.97;2.47;;;;;12.50;94041.00;;;;7405087;19;20151;-90
2023/07/04 02:37:03;;;;;;;3.30;2.38;;;;;12.50;94046.00;;;;7403841;19;20204;-90
2023/07/04 02:39:37;;;;;;;7.22;2.72;;;;;12.50;94046.00;;;;7405016;19;20153;-90
2023/07/04 02:42:12;;;;;;;7.75;2.47;;;;;12.50;94042.00;;;;7405091;19;20145;-90
2023/07/04 02:44:46;;;;;;;5.18;2.47;;;;;12.60;94047.00;;;;7405600;19;20506;-90
2023/07/04 02:47:25;;;;;;;4.10;2.53;;;;;12.50;94050.00;;;;7404435;19;20488;-91
2023/07/04 02:50:00;;;;;;;4.93;2.55;;;;;12.60;94047.00;;;;7405395;19;20486;-90
2023/07/04 02:52:34;;;;;;;3.65;2.50;;;;;12.60;94052.00;;;;7405897;19;20173;-90
2023/07/04 02:55:02;;;;;;;2.85;2.22;;;;;12.50;94050.00;;;;7405252;19;20177;-91
2023/07/04 02:57:36;;;;;;;6.40;2.63;;;;;12.40;94054.00;;;;7402457;19;20143;-91
2023/07/04 03:00:05;;;;;;;4.60;2.17;;;;;12.40;94046.00;;;;7402613;19;20140;-90
2023/07/04 03:02:45;;;;;;;3.58;2.30;;;;;12.30;94053.00;;;;7401379;19;20180;-91
2023/07/04 03:05:26;;;;;;;3.72;2.13;;;;;12.30;94055.00;;;;7405576;19;20124;-90
2023/07/04 03:07:59;;;;;;;4.80;2.40;;;;;12.30;94052.00;;;;7405038;19;20144;-90
2023/07/04 03:10:27;;;;;;;5.57;3.05;;;;;12.30;94053.00;;;;7402949;19;20461;-91
2023/07/04 03:13:02;;;;;;;13.43;2.80;;;;;12.20;94057.00;;;;7405013;19;20140;-91
2023/07/04 03:15:29;;;;;;;6.20;2.45;;;;;12.30;94057.00;;;;7404336;19;20148;-89
2023/07/04 03:18:03;;;;;;;4.60;2.60;;;;;12.30;94054.00;;;;7404326;19;20148;-90
2023/07/04 03:20:34;;;;;;;5.95;3.00;;;;;12.40;94058.00;;;;7405735;19;20117;-90
2023/07/04 03:23:08;;;;;;;5.93;2.80;;;;;12.40;94059.00;;;;7403982;19;20484;-90
2023/07/04 03:25:36;;;;;;;3.20;2.40;;;;;12.40;94052.00;;;;7403483;19;20132;-90
2023/07/04 03:28:10;;;;;;;5.18;2.63;;;;;12.40;94068.00;;;;7404072;19;20651;-90
2023/07/04 03:30:44;;;;;;;7.20;2.53;;;;;12.30;94064.00;;;;7404496;19;20121;-91
2023/07/04 03:33:19;;;;;;;7.10;2.92;;;;;12.30;94063.00;;;;7403993;19;20144;-91
2023/07/04 03:35:54;;;;;;;6.65;2.67;;;;;12.40;94064.00;;;;7404533;19;20168;-91
2023/07/04 03:38:29;;;;;;;3.35;2.63;;;;;12.50;94069.00;;;;7404550;19;20184;-91
2023/07/04 03:40:58;;;;;;;5.47;3.30;;;;;12.60;94069.00;;;;7403296;19;20156;-92
2023/07/04 03:43:35;;;;;;;4.40;2.55;;;;;12.70;94068.00;;;;7404289;19;20153;-91
2023/07/04 03:46:04;;;;;;;6.25;2.40;;;;;12.80;94077.00;;;;7404805;19;20158;-91
2023/07/04 03:48:38;;;;;;;4.72;2.45;;;;;12.80;94076.00;;;;7411331;19;20141;-91
2023/07/04 03:51:06;;;;;;;4.47;2.78;;;;;12.80;94070.00;;;;7403780;19;20141;-91
2023/07/04 03:53:41;;;;;;;3.88;2.72;;;;;13.00;94071.00;;;;7405021;19;20228;-94
2023/07/04 03:56:15;;;;;;;4.75;2.88;;;;;13.20;94067.00;;;;7406590;19;20155;-95
2023/07/04 03:58:49;;;;;;;4.65;2.17;;;;;13.30;94073.00;;;;7406577;19;20168;-95
2023/07/04 04:01:24;;;;;;;4.85;2.53;;;;;13.30;94078.00;;;;7406103;19;20173;-95
2023/07/04 04:04:05;;;;;;;3.60;2.30;;;;;13.30;94072.00;;;;7407824;19;20141;-95
2023/07/04 04:06:33;;;;;;;4.65;2.42;;;;;13.50;94075.00;;;;7403908;19;20140;-95
2023/07/04 04:09:07;;;;;;;3.83;2.25;;;;;13.60;94069.00;;;;7404563;19;20140;-95
2023/07/04 04:11:44;;;;;;;4.80;2.40;;;;;13.60;94065.00;;;;7410121;19;20145;-94
2023/07/04 04:14:19;;;;;;;4.22;2.25;;;;;13.60;94061.00;;;;7414210;19;20148;-95
2023/07/04 04:16:54;;;;;;;6.63;2.33;;;;;13.80;94067.00;;;;7411268;19;20164;-95
2023/07/04 04:19:30;;;;;;;4.00;2.20;;;;;13.90;94069.00;;;;7413804;19;20509;-96
2023/07/04 04:22:05;;;;;;;4.95;2.20;;;;;13.90;94064.00;;;;7411808;19;20491;-95
2023/07/04 04:24:36;;;;;;;4.80;2.58;;;;;13.90;94056.00;;;;7414412;19;20148;-95
2023/07/04 04:27:15;;;;;;;4.10;2.47;;;;;13.90;94056.00;;;;7414416;19;20168;-94
2023/07/04 04:29:43;;;;;;;5.40;2.30;;;;;13.90;94060.00;;;;7411818;19;20141;-94
2023/07/04 04:32:18;;;;;;;4.75;2.38;;;;;14.10;94063.00;;;;7410324;19;20140;-95
2023/07/04 04:34:53;;;;;;;8.23;2.45;;;;;14.10;94062.00;;;;7409065;19;20133;-96
2023/07/04 04:37:27;;;;;;;7.13;2.53;;;;;14.40;94063.00;;;;7409445;19;20180;-93
2023/07/04 04:39:56;;;;;;;7.32;2.55;;;;;14.50;94066.00;;;;7409503;19;20141;-95
2023/07/04 04:42:34;;;;;;;8.18;2.47;;;;;14.60;94059.00;;;;7411600;19;20152;-94
2023/07/04 04:45:11;;;;;;;4.03;2.17;;;;;14.70;94066.00;;;;7413179;19;20151;-95
2023/07/04 04:47:52;;;;;;;3.95;2.30;;;;;14.80;94067.00;;;;7426575;19;20145;-94
2023/07/04 04:50:31;;;;;;;13.00;3.20;;;;;14.90;94065.00;;;;7422214;19;20179;-95
2023/07/04 04:53:14;;;;;;;7.20;2.03;;;;;15.10;94060.00;;;;7422057;19;20149;-94
2023/07/04 04:55:51;;;;;;;5.03;2.28;;;;;15.10;94062.00;;;;7425885;19;20144;-94
2023/07/04 04:58:26;;;;;;;7.93;2.70;;;;;15.40;94063.00;;;;7407561;19;20140;-94
2023/07/04 05:01:22;;;;;;;5.50;2.63;;;;;15.60;94062.00;;;;7407006;19;20176;-94
2023/07/04 05:03:58;;;;;;;5.32;2.35;;;;;15.70;94064.00;;;;7404942;19;20229;-95
2023/07/04 05:06:32;;;;;;;6.95;3.08;;;;;15.90;94062.00;;;;7407206;19;20269;-95
2023/07/04 05:09:07;;;;;;;6.45;2.95;;;;;16.20;94072.00;;;;7405852;19;20622;-94
2023/07/04 05:11:41;;;;;;;6.15;2.58;;;;;16.30;94064.00;;;;7409359;19;20603;-96
2023/07/04 05:14:09;;;;;;;8.40;2.50;;;;;16.40;94076.00;;;;7410218;19;20145;-94
2023/07/04 05:16:44;;;;;;;6.82;3.08;;;;;16.50;94071.00;;;;7408018;19;20153;-95
2023/07/04 05:19:14;;;;;;;7.55;2.80;;;;;16.50;94067.00;;;;7407348;19;20149;-95
2023/07/04 05:21:48;;;;;;;13.07;3.10;;;;;16.40;94074.00;;;;7405232;19;20223;-95
2023/07/04 05:24:16;;;;;;;11.48;2.22;;;;;16.40;94069.00;;;;7408052;19;20160;-94
2023/07/04 05:26:51;;;;;;;6.07;2.42;;;;;16.60;94074.00;;;;7411889;19;20147;-95
2023/07/04 05:29:19;;;;;;;6.53;2.30;;;;;16.90;94076.00;;;;7406992;19;20153;-95
2023/07/04 05:31:53;;;;;;;4.07;2.33;;;;;17.20;94084.00;;;;7409337;19;20157;-95
2023/07/04 05:34:27;;;;;;;7.68;2.67;;;;;17.30;94077.00;;;;7410728;19;20153;-95
2023/07/04 05:37:04;;;;;;;5.65;2.22;;;;;17.30;94078.00;;;;7408836;19;20148;-96
2023/07/04 05:39:44;;;;;;;8.70;3.17;;;;;17.00;94090.00;;;;7407396;19;20144;-95
2023/07/04 05:42:12;;;;;;;6.90;3.00;;;;;17.00;94082.00;;;;7404013;19;20152;-96
2023/07/04 05:44:46;;;;;;;5.05;2.60;;;;;17.00;94086.00;;;;7406925;19;20559;-94
2023/07/04 05:47:17;;;;;;;7.45;2.70;;;;;17.00;94079.00;;;;7406589;19;20168;-94
2023/07/04 05:49:52;;;;;;;4.32;2.33;;;;;17.10;94083.00;;;;7408939;19;20227;-95
2023/07/04 05:52:26;;;;;;;8.05;2.67;;;;;16.90;94081.00;;;;7409285;19;20159;-95
2023/07/04 05:55:00;;;;;;;13.75;3.00;;;;;17.00;94080.00;;;;7407919;19;20160;-93
2023/07/04 05:57:31;;;;;;;7.32;2.75;;;;;17.10;94079.00;;;;7405803;19;20500;-94
2023/07/04 06:00:06;;;;;;;8.13;3.08;;;;;17.10;94080.00;;;;7404756;19;20154;-95
2023/07/04 06:02:58;;;;;;;12.70;3.10;;;;;17.40;94087.00;;;;7405613;19;20274;-93
2023/07/04 06:05:39;;;;;;;7.03;3.08;;;;;17.60;94092.00;;;;7405626;19;20152;-91
2023/07/04 06:08:13;;;;;;;8.10;3.25;;;;;17.70;94088.00;;;;7408858;19;20153;-92
2023/07/04 06:10:45;;;;;;;14.68;3.50;;;;;17.90;94083.00;;;;7405935;19;20865;-95
2023/07/04 06:13:19;;;;;;;7.50;3.40;;;;;18.20;94095.00;;;;7402021;19;20200;-95
2023/07/04 06:15:56;;;;;;;6.72;3.00;;;;;17.80;94101.00;;;;7404471;19;20161;-95
2023/07/04 06:18:31;;;;;;;5.85;2.95;;;;;17.20;94098.00;;;;7405129;19;20137;-96
2023/07/04 06:21:11;;;;;;;8.23;2.90;;;;;17.30;94099.00;;;;7405707;19;20148;-95
2023/07/04 06:23:42;;;;;;;9.25;3.03;;;;;17.20;94109.00;;;;7408240;19;20149;-96
2023/07/04 06:26:16;;;;;;;6.55;3.45;;;;;17.10;94104.00;;;;7408620;19;20148;-96
2023/07/04 06:28:44;;;;;;;6.38;3.05;;;;;17.10;94109.00;;;;7409748;19;20180;-94
2023/07/04 06:31:18;;;;;;;5.60;3.00;;;;;17.10;94110.00;;;;7409013;19;20560;-95
2023/07/04 06:33:50;;;;;;;6.53;3.13;;;;;17.10;94115.00;;;;7410104;19;20703;-96
2023/07/04 06:36:48;;;;;;;11.02;3.80;;;;;17.10;94115.00;;;;7401047;19;20471;-75
2023/07/04 06:39:22;;;;;;;9.57;3.53;;;;;17.10;94121.00;;;;7382843;19;20469;-74
2023/07/04 06:41:56;;;;;;;8.43;3.40;;;;;17.30;94127.00;;;;7382148;19;20187;-75
2023/07/04 06:44:30;;;;;;;6.07;3.05;;;;;17.60;94130.00;;;;7382879;19;20160;-74
2023/07/04 06:46:58;;;;;;;7.60;2.90;;;;;17.90;94125.00;;;;7383176;19;20165;-74
2023/07/04 06:49:33;;;;;;;8.25;2.35;;;;;17.80;94133.00;;;;7382621;19;20587;-73
2023/07/04 06:52:00;;;;;;;3.78;2.33;;;;;18.00;94140.00;;;;7383288;19;20152;-76
2023/07/04 06:54:34;;;;;;;5.28;2.50;;;;;18.10;94133.00;;;;7384132;19;20515;-78
2023/07/04 06:57:11;;;;;;;7.40;2.40;;;;;18.00;94147.00;;;;7383544;19;20148;-77
2023/07/04 06:59:45;;;;;;;5.32;2.30;;;;;18.10;94153.00;;;;7376828;19;20449;-77
2023/07/04 07:02:19;;;;;;;5.55;2.38;;;;;18.10;94153.00;;;;7383955;19;20663;-77
2023/07/04 07:04:47;;;;;;;8.70;2.92;;;;;18.30;94158.00;;;;7383986;19;20173;-77
2023/07/04 07:07:22;;;;;;;4.50;2.55;;;;;18.10;94162.00;;;;7381872;19;20180;-78
2023/07/04 07:09:57;;;;;;;4.45;2.45;;;;;17.80;94156.00;;;;7382882;19;20159;-79
2023/07/04 07:12:33;;;;;;;6.43;3.05;;;;;17.90;94155.00;;;;7382919;19;20168;-77
2023/07/04 07:15:01;;;;;;;9.02;3.00;;;;;18.20;94163.00;;;;7381035;19;20149;-77
2023/07/04 07:17:36;;;;;;;5.80;2.58;;;;;18.30;94153.00;;;;7383688;19;20617;-76
2023/07/04 07:20:06;;;;;;;3.60;2.40;;;;;18.40;94150.00;;;;7383395;19;20181;-76
2023/07/04 07:22:40;;;;;;;4.38;2.90;;;;;18.80;94156.00;;;;7385126;19;20145;-78
2023/07/04 07:25:08;;;;;;;7.75;2.70;;;;;18.70;94154.00;;;;7382667;19;20157;-78
2023/07/04 07:27:43;;;;;;;6.90;3.00;;;;;18.70;94154.00;;;;7382936;19;20143;-77
2023/07/04 07:30:11;;;;;;;7.60;2.88;;;;;18.50;94147.00;;;;7385831;19;20136;-78
2023/07/04 07:32:45;;;;;;;7.85;3.05;;;;;18.80;94152.00;;;;7383630;19;20155;-77
2023/07/04 07:35:15;;;;;;;11.90;3.30;;;;;18.50;94157.00;;;;7382609;19;20132;-78
2023/07/04 07:37:49;;;;;;;9.00;3.40;;;;;18.70;94148.00;;;;7384106;19;20176;-80
2023/07/04 07:40:24;;;;;;;10.25;4.13;;;;;18.70;94142.00;;;;7384313;19;20189;-79
2023/07/04 07:43:00;;;;;;;5.85;3.08;;;;;18.90;94141.00;;;;7384644;19;20129;-77
2023/07/04 07:45:28;;;;;;;9.13;3.17;;;;;18.90;94156.00;;;;7381969;19;20137;-77
2023/07/04 07:48:02;;;;;;;8.88;3.30;;;;;18.80;94150.00;;;;7390139;19;20633;-79
2023/07/04 07:50:36;;;;;;;10.30;3.90;;;;;19.00;94145.00;;;;7389246;19;20164;-78
2023/07/04 07:53:04;;;;;;;7.38;3.55;;;;;19.10;94146.00;;;;7388280;19;20128;-76
2023/07/04 07:55:39;;;;;;;9.68;3.45;;;;;19.00;94146.00;;;;7386339;19;20132;-77
2023/07/04 07:58:07;;;;;;;10.25;3.67;;;;;19.50;94147.00;;;;7389327;19;20140;-78
2023/07/04 08:00:43;;;;;;;6.32;3.47;;;;;19.30;94148.00;;;;7388621;19;20187;-79
2023/07/04 08:03:10;;;;;;;6.50;3.65;;;;;19.70;94147.00;;;;7388672;19;20166;-75
2023/07/04 08:05:45;;;;;;;3.72;2.85;;;;;19.50;94144.00;;;;7387699;19;20508;-76
2023/07/04 08:08:13;;;;;;;7.65;3.67;;;;;19.60;94150.00;;;;7388369;19;20152;-75
2023/07/04 08:10:50;;;;;;;8.10;3.53;;;;;19.80;94135.00;;;;7381862;19;20223;-75
2023/07/04 08:13:18;;;;;;;8.05;3.60;;;;;19.90;94135.00;;;;7388200;19;20605;-75
2023/07/04 08:15:53;;;;;;;5.93;3.40;;;;;20.10;94134.00;;;;7386000;19;20136;-75
2023/07/04 08:18:21;;;;;;;7.47;3.42;;;;;20.30;94144.00;;;;7386502;19;20137;-75
2023/07/04 08:21:03;;;;;;;9.15;3.78;;;;;19.70;94146.00;;;;7388439;19;20160;-75
2023/07/04 08:23:33;;;;;;;9.65;3.83;;;;;19.90;94139.00;;;;7387784;19;20150;-78
2023/07/04 08:26:20;;;;;;;5.88;3.88;;;;;20.00;94136.00;;;;7389084;19;20615;-78
2023/07/04 08:28:48;;;;;;;8.88;3.88;;;;;19.70;94134.00;;;;7386643;19;20152;-75
2023/07/04 08:31:24;;;;;;;6.82;4.00;;;;;20.20;94130.00;;;;7384957;19;20148;-78
2023/07/04 08:33:51;;;;;;;8.65;4.00;;;;;19.90;94150.00;;;;7390982;19;20129;-76
2023/07/04 08:36:27;;;;;;;8.90;4.40;;;;;18.80;94141.00;;;;7389546;19;20790;-75
2023/07/04 08:39:01;;;;;;;7.10;4.22;;;;;20.00;94128.00;;;;7385129;19;20180;-75
2023/07/04 08:41:59;;;;;;;7.55;4.43;;;;;20.90;94132.00;;;;7386163;19;20156;-75
2023/07/04 08:44:36;;;;;;;10.43;4.22;;;;;20.60;94149.00;;;;7387098;19;20631;-77
2023/07/04 08:47:15;;;;;;;14.23;4.50;;;;;20.70;94126.00;;;;7387727;19;20161;-75
2023/07/04 08:49:53;;;;;;;9.00;4.50;;;;;21.10;94124.00;;;;7388992;19;20143;-75
2023/07/04 08:52:42;;;;;;;8.55;4.22;;;;;20.90;94138.00;;;;7386950;19;20156;-76
2023/07/04 08:55:15;;;;;;;7.82;3.85;;;;;20.80;94143.00;;;;7386342;19;20632;-76
2023/07/04 08:57:57;;;;;;;5.95;3.88;;;;;20.50;94149.00;;;;7386215;19;20136;-76
2023/07/04 09:00:30;;;;;;;9.98;4.25;;;;;20.30;94134.00;;;;7387386;19;20224;-78
2023/07/04 09:03:27;;;;;;;8.43;3.95;;;;;19.90;94150.00;;;;7389098;19;20169;-75
2023/07/04 09:06:16;;;;;;;8.07;4.10;;;;;19.80;94146.00;;;;7388699;19;20635;-75
2023/07/04 09:09:02;;;;;;;7.47;4.30;;;;;20.10;94127.00;;;;7386699;19;20140;-75
2023/07/04 09:11:37;;;;;;;10.00;4.32;;;;;19.80;94148.00;;;;7387967;19;20153;-78
2023/07/04 09:14:28;;;;;;;7.40;4.57;;;;;20.00;94158.00;;;;7388939;19;20133;-79
2023/07/04 09:17:01;;;;;;;6.95;4.30;;;;;20.10;94125.00;;;;7388951;19;20129;-79
2023/07/04 09:19:43;;;;;;;7.88;4.50;;;;;21.10;94131.00;;;;7388754;19;20599;-77
2023/07/04 09:22:18;;;;;;;5.75;4.70;;;;;20.50;94151.00;;;;7387766;19;20611;-75
2023/07/04 09:24:53;;;;;;;9.10;4.57;;;;;19.90;94135.00;;;;7386968;19;20143;-77
2023/07/04 09:27:21;;;;;;;8.65;4.60;;;;;20.20;94114.00;;;;7387343;19;20159;-76
2023/07/04 09:29:57;;;;;;;9.15;4.22;;;;;21.60;94140.00;;;;7387844;19;20156;-78
2023/07/04 09:32:31;;;;;;;6.75;4.20;;;;;21.80;94141.00;;;;7385908;19;20156;-78
2023/07/04 09:35:08;;;;;;;9.88;4.82;;;;;22.20;94143.00;;;;7388684;19;20159;-80
2023/07/04 09:38:04;;;;;;;6.60;4.15;;;;;22.50;94105.00;;;;7387565;19;20172;-77
2023/07/04 09:40:54;;;;;;;9.85;4.30;;;;;22.50;94137.00;;;;7388516;19;20166;-77
2023/07/04 09:43:33;;;;;;;11.82;3.88;;;;;21.80;94122.00;;;;7386028;19;20156;-77
2023/07/04 09:46:18;;;;;;;7.32;3.90;;;;;21.80;94142.00;;;;7387270;19;20453;-74
2023/07/04 09:48:55;;;;;;;5.85;4.13;;;;;21.40;94156.00;;;;7385104;19;20145;-78
2023/07/04 09:51:25;;;;;;;9.13;4.28;;;;;20.60;94156.00;;;;7386949;19;20152;-78
2023/07/04 09:54:15;;;;;;;6.75;4.30;;;;;20.20;94159.00;;;;7385805;19;20621;-74
2023/07/04 09:56:45;;;;;;;6.53;4.20;;;;;20.50;94124.00;;;;7386044;19;20153;-76
2023/07/04 09:59:22;;;;;;;5.95;3.97;;;;;21.60;94120.00;;;;7385678;19;20148;-77
2023/07/04 10:01:52;;;;;;;10.15;4.70;;;;;22.10;94114.00;;;;7387268;19;20153;-77
2023/07/04 10:04:35;;;;;;;6.72;4.35;;;;;23.40;94108.00;;;;7387377;19;20135;-76
2023/07/04 10:07:15;;;;;;;8.77;4.45;;;;;22.90;94141.00;;;;7386698;19;20620;-78
2023/07/04 10:10:06;;;;;;;7.75;4.50;;;;;22.90;94107.00;;;;7383104;19;20152;-80
2023/07/04 10:12:41;;;;;;;7.47;4.70;;;;;22.50;94113.00;;;;7383373;19;20152;-76
2023/07/04 10:15:34;;;;;;;9.60;4.68;;;;;22.30;94136.00;;;;7386718;19;20158;-76
2023/07/04 10:18:23;;;;;;;6.32;4.25;;;;;22.00;94149.00;;;;7381731;19;20144;-77
2023/07/04 10:21:00;;;;;;;7.35;4.88;;;;;21.80;94134.00;;;;7383202;19;20210;-77
2023/07/04 10:23:34;;;;;;;7.57;3.97;;;;;22.80;94096.00;;;;7389081;19;20148;-79
2023/07/04 10:26:09;;;;;;;10.77;4.28;;;;;22.90;94132.00;;;;7389374;19;20148;-78
2023/07/04 10:28:52;;;;;;;6.38;4.50;;;;;21.20;94147.00;;;;7384001;19;20140;-76
2023/07/04 10:31:31;;;;;;;6.18;4.45;;;;;22.20;94092.00;;;;7383892;19;20607;-78
2023/07/04 10:34:09;;;;;;;8.60;4.78;;;;;24.30;94094.00;;;;7386015;19;20603;-77
2023/07/04 10:36:46;;;;;;;6.60;4.47;;;;;24.30;94109.00;;;;7385808;19;20192;-79
2023/07/04 10:39:22;;;;;;;5.60;4.00;;;;;24.40;94135.00;;;;7385354;19;20155;-79
2023/07/04 10:42:16;;;;;;;7.38;4.35;;;;;23.20;94139.00;;;;7384223;19;20865;-77
2023/07/04 10:44:49;;;;;;;7.90;4.18;;;;;23.70;94101.00;;;;7384871;19;20153;-77
2023/07/04 10:47:33;;;;;;;5.75;4.55;;;;;23.70;94098.00;;;;7385035;19;20149;-76
2023/07/04 10:50:26;;;;;;;6.97;3.92;;;;;23.70;94093.00;;;;7386569;19;20580;-76
2023/07/04 10:52:54;;;;;;;8.90;3.78;;;;;23.80;94121.00;;;;7384717;19;20616;-78
2023/07/04 10:55:50;;;;;;;4.65;3.63;;;;;23.30;94105.00;;;;7387357;19;20496;-77
2023/07/04 10:58:29;;;;;;;7.88;4.30;;;;;24.00;94134.00;;;;7384889;19;20152;-78
2023/07/04 11:01:10;;;;;;;5.05;3.72;;;;;23.00;94129.00;;;;7385500;19;20180;-77
2023/07/04 11:03:53;;;;;;;4.47;3.88;;;;;22.30;94144.00;;;;7389842;19;20143;-78
2023/07/04 11:06:43;;;;;;;6.20;3.95;;;;;22.70;94105.00;;;;7385450;19;20132;-77
2023/07/04 11:09:18;;;;;;;7.20;4.57;;;;;23.90;94096.00;;;;7389165;19;20132;-77
2023/07/04 11:11:49;;;;;;;8.23;3.90;;;;;24.70;94087.00;;;;7385077;19;20145;-79
2023/07/04 11:14:28;;;;;;;5.60;3.80;;;;;24.60;94142.00;;;;7386832;19;20147;-79
2023/07/04 11:17:06;;;;;;;5.93;4.00;;;;;23.20;94139.00;;;;7385366;19;20129;-78
2023/07/04 11:20:15;;;;;;;7.82;4.00;;;;;22.30;94139.00;;;;7383774;19;20211;-80
2023/07/04 11:22:55;;;;;;;5.40;3.40;;;;;22.00;94113.00;;;;7384510;19;20167;-79
2023/07/04 11:25:59;;;;;;;6.90;3.90;;;;;23.30;94087.00;;;;7383673;19;20176;-77
2023/07/04 11:28:37;;;;;;;6.13;3.80;;;;;24.50;94131.00;;;;7384834;19;20491;-78
2023/07/04 11:31:28;;;;;;;6.55;3.72;;;;;22.50;94132.00;;;;7384937;19;20212;-79
2023/07/04 11:33:56;;;;;;;5.45;3.08;;;;;22.30;94145.00;;;;7384110;19;20148;-78
2023/07/04 11:36:45;;;;;;;7.88;3.58;;;;;21.70;94139.00;;;;7383571;19;20137;-78
2023/07/04 11:39:34;;;;;;;4.93;3.60;;;;;22.20;94081.00;;;;7382228;19;20353;-75
2023/07/04 11:42:18;;;;;;;5.32;3.50;;;;;22.80;94133.00;;;;7381919;19;20156;-77
2023/07/04 11:44:58;;;;;;;6.05;3.63;;;;;22.90;94126.00;;;;7382935;19;20152;-78
2023/07/04 11:47:42;;;;;;;5.72;3.83;;;;;23.10;94107.00;;;;7382791;19;20151;-80
2023/07/04 11:50:20;;;;;;;5.18;3.78;;;;;24.00;94116.00;;;;7384063;19;20239;-78
2023/07/04 11:53:19;;;;;;;6.38;3.67;;;;;22.80;94126.00;;;;7382668;19;20163;-76
2023/07/04 11:56:32;;;;;;;7.50;3.75;;;;;23.70;94091.00;;;;7386075;19;20166;-75
2023/07/04 11:59:18;;;;;;;9.60;3.28;;;;;25.50;94100.00;;;;7393647;19;20452;-77
2023/07/04 12:01:52;;;;;;;5.53;3.88;;;;;25.90;94094.00;;;;7394092;19;20658;-76
2023/07/04 12:04:38;;;;;;;6.13;3.60;;;;;26.70;94086.00;;;;7393846;19;20263;-76
2023/07/04 12:07:21;;;;;;;6.97;3.83;;;;;26.20;94076.00;;;;7394424;19;20155;-79
2023/07/04 12:10:03;;;;;;;6.43;3.53;;;;;27.60;94076.00;;;;7396311;19;20204;-75
2023/07/04 12:12:37;;;;;;;5.45;3.90;;;;;26.90;94113.00;;;;7394727;19;20140;-78
2023/07/04 12:15:09;;;;;;;4.32;3.53;;;;;25.20;94110.00;;;;7394839;19;20818;-78
2023/07/04 12:17:48;;;;;;;5.75;4.00;;;;;24.30;94116.00;;;;7394207;19;20141;-76
2023/07/04 12:20:18;;;;;;;5.60;4.07;;;;;23.80;94100.00;;;;7394930;19;20217;-76
2023/07/04 12:22:56;;;;;;;4.95;3.65;;;;;23.80;94112.00;;;;7394667;19;20169;-77
2023/07/04 12:25:46;;;;;;;4.65;3.42;;;;;23.20;94080.00;;;;7394544;19;20652;-77
2023/07/04 12:28:28;;;;;;;5.57;3.97;;;;;24.90;94071.00;;;;7395299;19;20133;-78
2023/07/04 12:31:01;;;;;;;3.85;3.42;;;;;24.80;94097.00;;;;7395584;19;20144;-77
2023/07/04 12:33:40;;;;;;;9.57;3.53;;;;;24.40;94099.00;;;;7401561;19;20137;-78
2023/07/04 12:36:12;;;;;;;4.45;3.40;;;;;24.60;94061.00;;;;7400371;19;20137;-77
2023/07/04 12:38:56;;;;;;;6.63;3.63;;;;;26.50;94056.00;;;;7398259;19;20256;-81
2023/07/04 12:41:40;;;;;;;7.88;3.78;;;;;27.80;94066.00;;;;7399691;19;20144;-79
2023/07/04 12:44:15;;;;;;;5.88;3.80;;;;;28.10;94050.00;;;;7400867;19;20152;-79
2023/07/04 12:46:46;;;;;;;6.93;3.58;;;;;26.20;94073.00;;;;7401925;19;20200;-78
2023/07/04 12:49:23;;;;;;;5.05;3.40;;;;;24.80;94086.00;;;;7401161;19;20587;-78
2023/07/04 12:51:59;;;;;;;5.63;3.38;;;;;24.70;94048.00;;;;7400403;19;20163;-79
2023/07/04 12:54:35;;;;;;;7.13;3.25;;;;;25.90;94053.00;;;;7401980;19;20605;-78
2023/07/04 12:57:03;;;;;;;4.63;3.25;;;;;25.40;94054.00;;;;7400266;19;20156;-78
2023/07/04 12:59:38;;;;;;;4.93;3.25;;;;;24.30;94070.00;;;;7400580;19;20160;-79
2023/07/04 13:02:24;;;;;;;4.85;3.92;;;;;24.50;94068.00;;;;7397592;19;20179;-78